GMMXLXGB

Guest
Details From GMMX - MENARA
To LXGB - Gibraltar
Flight Number -
Tags generated
Created
Modified
Stats Distance 306 nm / 567 km
Max Altitude 31,100 ft / 9,479 m
Waypoints 6
Social Downloads 7
Likes 0
Share VATSIM

Download

Looking for another format? Having issues loading an existing format? Contact us
Advertisement - Login to hide

Notes

Basic altitude profile: - Ascent Rate: 2500ft/min - Ascent Speed: 250kts - Cruise Altitude: 35000ft - Cruise Speed: 420kts - Descent Rate: 1500ft/min - Descent Speed: 250kts Options: - Use NATs: yes - Use PACOTS: yes - Use low airways: yes - Use high airways: yes

Route

GMMX PELIN UB11 BARIS LXGB

ID Type Via Altitude Latitude Longitude Leg Dist Tot Dist Heading (true) Name
O GMMX APT - 0 ft / 0 m 31.60692˚ -8.03627˚ - 0 nm - MENARA
PELIN FIX - 29,900 ft / 9,114 m 32.89417˚ -7.39667˚ 83 nm 83 nm 23° / 23° -
RBT VOR UB11 (AWY-HI) 31,100 ft / 9,479 m 34.05000˚ -6.74639˚ 76 nm 160 nm 25° / 25° RABAT VOR-DME
TUSOR FIX UB11 (AWY-HI) 23,500 ft / 7,163 m 34.49722˚ -6.33167˚ 33 nm 194 nm 37° / 38° -
BARIS FIX UB11 (AWY-HI) 23,500 ft / 7,163 m 34.90306˚ -5.93056˚ 31 nm 225 nm 39° / 39° -
O LXGB APT - 0 ft / 0 m 36.15121˚ -5.34966˚ 80 nm 305 nm 21° / 21° Gibraltar

Altitude Profile

Advertisement - Login to hide

Weather


0- 5 10 15 20 25 30 35+ Temperature / ° C

Clouds and Precipitation
Forecast for 2017-12-16 18:00 UTC. Updated an hour ago

Ground ~20,000 ft ~40,000 ft Winds

GMMX

Details ICAO GMMX (RAK)
Name MENARA
Region Morocco
Timezone Africa/Casablanca (UTC+0.0)
Stats Elevation 1,545 ft / 471 m (AMSL)
Location 31.606920° -8.036265°
Runways 1
Magnetic Variation 1.999° W

METAR

GMMX 161830Z 34005KT 5000 FEW013 BKN020 15/12 Q1019 NOSIG

Decode

TAF

TAF GMMX 161700Z 1618/1724 30006KT 6000 BKN020 SCT080 TEMPO 1619/1623 4000 RA BECMG 1710/1713 SCT026

Decode

Departure Runways

ID Width Length Bearing (true) Bearing (mag) Surface Threshold Offset Overrun Length
10 148 ft / 45 m 10,169 ft / 3,100 m 95.99° 97.99° Asphalt 918 ft / 280 m 0 ft / 0 m
28 148 ft / 45 m 10,169 ft / 3,100 m 276.00° 278.00° Asphalt 0 ft / 0 m 0 ft / 0 m

LXGB

Details ICAO LXGB (GIB)
Name Gibraltar
Region Gibralter
Timezone Europe/Gibraltar (UTC+1.0)
Stats Elevation 15 ft / 5 m (AMSL)
Location 36.151209° -5.349664°
Runways 1
Magnetic Variation 1.122° W

METAR

LXGB 161750Z AUTO 08012KT 9999 // SCT050/// 16/11 Q1020

Decode

TAF

Not found

Destination Runways

ID Width Length Bearing (true) Bearing (mag) Surface Threshold Offset Overrun Length
27 151 ft / 46 m 5,992 ft / 1,826 m 267.56° 268.68° Asphalt 367 ft / 112 m 89 ft / 27 m
9 151 ft / 46 m 5,992 ft / 1,826 m 87.54° 88.66° Asphalt 299 ft / 91 m 52 ft / 16 m

Popular Alternatives